createdAt,value
2022-10-08T00:01:10.979Z,202.82353
2022-10-08T00:06:12.480Z,215.36564
2022-10-08T00:11:14.123Z,215.36564
2022-10-08T00:16:16.109Z,216.56637
2022-10-08T00:21:17.965Z,206.12766
2022-10-08T00:26:19.971Z,214.17544
2022-10-08T00:31:21.720Z,221.47748
2022-10-08T00:36:23.457Z,219
2022-10-08T00:41:25.149Z,217.77778
2022-10-08T00:46:26.902Z,205.01695
2022-10-08T00:51:28.551Z,191.38956
2022-10-08T00:56:31.046Z,194.4065
2022-10-08T01:01:32.734Z,195.42857
2022-10-08T01:06:34.386Z,195.42857
2022-10-08T01:11:36.272Z,192.3871
2022-10-08T01:16:37.948Z,193.39271
2022-10-08T01:21:39.653Z,197.49794
2022-10-08T01:26:41.729Z,186.51969
2022-10-08T01:31:43.550Z,181.83784
2022-10-08T01:36:45.344Z,185.56863
2022-10-08T01:41:47.345Z,184.625
2022-10-08T01:46:49.084Z,177.33333
2022-10-08T01:51:50.817Z,179.1145
2022-10-08T01:56:52.799Z,179.1145
2022-10-08T02:01:54.563Z,178.22053
2022-10-08T02:06:56.360Z,168.81752
2022-10-08T02:11:58.108Z,167.18841
2022-10-08T02:16:59.887Z,164
2022-10-08T02:22:01.619Z,167.18841
2022-10-08T02:27:03.816Z,162.43972
2022-10-08T02:32:05.484Z,167.18841
2022-10-08T02:37:07.185Z,173.85075
2022-10-08T02:42:09.059Z,172.14815
2022-10-08T02:47:10.735Z,171.30627
2022-10-08T02:52:12.238Z,173.85075
2022-10-08T02:57:14.298Z,159.38462
2022-10-08T03:02:15.773Z,156.41379
2022-10-08T03:07:17.317Z,156.41379
2022-10-08T03:12:19.064Z,159.38462
2022-10-08T03:17:20.539Z,157.14879
2022-10-08T03:22:22.193Z,149.33333
2022-10-08T03:27:25.110Z,147.97351
2022-10-08T03:32:26.597Z,155.68385
2022-10-08T03:37:28.222Z,154.23891
2022-10-08T03:42:29.820Z,151.40741
2022-10-08T03:47:31.370Z,150.02007
2022-10-08T03:52:33.025Z,151.40741
2022-10-08T03:57:35.575Z,155.68385
2022-10-08T04:02:37.063Z,160.14035
2022-10-08T04:07:38.612Z,157.14879
2022-10-08T04:12:40.199Z,156.41379
2022-10-08T04:17:41.848Z,158.63415
2022-10-08T04:22:43.297Z,156.41379
2022-10-08T04:27:45.119Z,157.88889
2022-10-08T04:32:47.087Z,154.9589
2022-10-08T04:37:49.220Z,161.66784
2022-10-08T04:42:51.049Z,147.30033
2022-10-08T04:47:52.614Z,160.90141
2022-10-08T04:52:54.371Z,160.14035
2022-10-08T04:57:56.030Z,167.18841
2022-10-08T05:02:57.786Z,166.38267
2022-10-08T05:07:59.287Z,177.33333
2022-10-08T05:13:01.017Z,164
2022-10-08T05:18:02.523Z,164.78853
2022-10-08T05:23:04.123Z,172.99628
2022-10-08T05:28:05.996Z,175.57895
2022-10-08T05:33:07.770Z,179.1145
2022-10-08T05:38:09.251Z,184.625
2022-10-08T05:43:11.079Z,168.81752
2022-10-08T05:48:12.890Z,150.71141
2022-10-08T05:53:14.503Z,157.88889
2022-10-08T05:58:16.294Z,168
2022-10-08T06:03:18.052Z,182.75969
2022-10-08T06:08:19.792Z,176.45283
2022-10-08T06:13:21.532Z,183.68872
2022-10-08T06:18:23.258Z,156.41379
2022-10-08T06:23:24.978Z,203.91561
2022-10-08T06:28:26.727Z,219
2022-10-08T06:33:28.371Z,205.01695
2022-10-08T06:38:30.037Z,201.74059
2022-10-08T06:43:31.848Z,211.82609
2022-10-08T06:48:33.606Z,203.91561
2022-10-08T06:53:35.175Z,253.54774
2022-10-08T06:58:36.897Z,278.78261
2022-10-08T07:03:38.392Z,264.83333
2022-10-08T07:08:39.924Z,253.54774
2022-10-08T07:13:41.447Z,266.51309
2022-10-08T07:18:43.276Z,266.51309
2022-10-08T07:23:44.726Z,258.28571
2022-10-08T07:28:47.553Z,248.9505
2022-10-08T07:33:49.309Z,300.06936
2022-10-08T07:38:50.946Z,256.69036
2022-10-08T07:43:52.715Z,284.33149
2022-10-08T07:48:54.490Z,312.86228
2022-10-08T07:54:01.463Z,271.65957
2022-10-08T07:59:04.706Z,324.24691
2022-10-08T08:04:06.431Z,310.66667
2022-10-08T08:09:08.055Z,338.87179
2022-10-08T08:14:09.844Z,390.37681
2022-10-08T08:19:11.480Z,331.42138
2022-10-08T08:24:13.104Z,308.49704
2022-10-08T08:29:15.135Z,357.42282
2022-10-08T08:34:16.799Z,393.63504
2022-10-08T08:39:18.475Z,380.87943
2022-10-08T08:44:20.320Z,470.49573
2022-10-08T08:49:22.089Z,410.66667
2022-10-08T08:54:23.907Z,504
2022-10-08T08:59:25.897Z,811.60563
2022-10-08T09:04:27.665Z,695.21951
2022-10-08T09:09:29.461Z,776.43243
2022-10-08T09:14:31.510Z,733.74359
2022-10-08T09:19:33.329Z,620.92308
2022-10-08T09:24:35.075Z,644
2022-10-08T09:29:37.033Z,776.43243
2022-10-08T09:34:38.760Z,877.33333
2022-10-08T09:39:40.495Z,863.40299
2022-10-08T09:44:42.163Z,937.54839
2022-10-08T09:49:44.111Z,1044
2022-10-08T09:54:45.905Z,906.5
2022-10-08T09:59:48.941Z,836.75362
2022-10-08T10:04:50.686Z,849.88235
2022-10-08T10:09:52.463Z,906.5
2022-10-08T10:14:54.354Z,811.60563
2022-10-08T10:19:56.086Z,836.75362
2022-10-08T10:24:57.914Z,937.54839
2022-10-08T10:29:59.865Z,988.0678
2022-10-08T10:35:01.565Z,776.43243
2022-10-08T10:40:03.258Z,1084.74074
2022-10-08T10:45:05.075Z,937.54839
2022-10-08T10:50:06.778Z,937.54839
2022-10-08T10:55:08.423Z,970.66667
2022-10-08T11:00:10.496Z,787.83562
2022-10-08T11:05:12.360Z,686.16867
2022-10-08T11:10:14.130Z,776.43243
2022-10-08T11:15:15.940Z,836.75362
2022-10-08T11:20:17.657Z,877.33333
2022-10-08T11:25:19.248Z,1084.74074
2022-10-08T11:30:21.427Z,1655.11111
2022-10-08T11:35:23.196Z,1024.70175
2022-10-08T11:40:24.843Z,1410.66667
2022-10-08T11:45:26.496Z,1484
2022-10-08T11:50:27.991Z,1376.55814
2022-10-08T11:55:29.611Z,1704
2022-10-08T12:00:31.760Z,1410.66667
2022-10-08T12:05:33.522Z,1312.88889
2022-10-08T12:10:35.183Z,1523.48718
2022-10-08T12:15:36.745Z,1344
2022-10-08T12:20:38.891Z,1227.33333
2022-10-08T12:25:40.560Z,1376.55814
2022-10-08T12:30:42.464Z,714
2022-10-08T12:35:44.131Z,849.88235
2022-10-08T12:40:45.935Z,1044
2022-10-08T12:45:47.698Z,921.77778
2022-10-08T12:50:49.723Z,863.40299
2022-10-08T12:55:51.480Z,836.75362
2022-10-08T13:00:53.780Z,1006.06897
2022-10-08T13:05:55.541Z,704.49383
2022-10-08T13:10:57.433Z,1006.06897
2022-10-08T13:15:59.473Z,1024.70175
2022-10-08T13:21:01.104Z,1044
2022-10-08T13:26:02.807Z,1176
2022-10-08T13:31:04.875Z,1064
2022-10-08T13:36:06.780Z,824
2022-10-08T13:41:08.510Z,811.60563
2022-10-08T13:46:10.024Z,1201.14286
2022-10-08T13:51:11.632Z,1254.6383
2022-10-08T13:56:13.239Z,1106.26415
2022-10-08T14:01:15.378Z,1565.05263
2022-10-08T14:06:17.081Z,1608.86486
2022-10-08T14:11:18.755Z,1283.13043
2022-10-08T14:16:20.482Z,1283.13043
2022-10-08T14:21:22.196Z,1151.84314
2022-10-08T14:26:23.733Z,704.49383
2022-10-08T14:31:25.567Z,776.43243
2022-10-08T14:36:27.998Z,652.04598
2022-10-08T14:41:29.723Z,765.33333
2022-10-08T14:46:31.467Z,970.66667
2022-10-08T14:51:32.922Z,714
2022-10-08T14:56:34.374Z,1006.06897
2022-10-08T15:01:36.350Z,1006.06897
2022-10-08T15:06:38.202Z,906.5
2022-10-08T15:11:39.811Z,849.88235
2022-10-08T15:16:41.830Z,754.52632
2022-10-08T15:21:43.774Z,628.44444
2022-10-08T15:26:45.294Z,677.33333
2022-10-08T15:31:47.252Z,686.16867
2022-10-08T15:36:48.916Z,636.13483
2022-10-08T15:41:50.514Z,509.13761
2022-10-08T15:46:54.880Z,494
2022-10-08T15:52:00.310Z,436.8
2022-10-08T15:57:01.848Z,457.33333
2022-10-08T16:02:03.843Z,475.03448
2022-10-08T16:07:05.349Z,466.0339
2022-10-08T16:12:07.037Z,444.81301
2022-10-08T16:17:08.782Z,387.16547
2022-10-08T16:22:10.440Z,436.8
2022-10-08T16:27:12.077Z,191.38956
2022-10-08T16:32:14.034Z,184.625
2022-10-08T16:37:15.712Z,245.96078
2022-10-08T16:42:17.396Z,286.22222
2022-10-08T16:47:19.339Z,275.1828
2022-10-08T16:52:20.770Z,317.33333
2022-10-08T16:57:22.514Z,276.97297
2022-10-08T17:02:26.050Z,290.06742
2022-10-08T17:07:28.823Z,294
2022-10-08T17:12:30.591Z,300.06936
2022-10-08T17:17:32.418Z,302.13953
2022-10-08T17:22:34.309Z,288.13408
2022-10-08T17:27:36.166Z,250.46766
2022-10-08T17:32:38.137Z,263.17098
2022-10-08T17:37:40.088Z,259.89744
2022-10-08T17:42:41.833Z,252
2022-10-08T17:47:43.965Z,222.73303
2022-10-08T17:52:46.125Z,235.94313
2022-10-08T17:57:48.150Z,231.85047
2022-10-08T18:02:50.705Z,221.47748
2022-10-08T18:07:52.898Z,222.73303
2022-10-08T18:12:54.654Z,220.23318
2022-10-08T18:17:56.473Z,216.56637
2022-10-08T18:22:58.198Z,217.77778
2022-10-08T18:27:59.928Z,203.91561
2022-10-08T18:33:02.041Z,193.39271
2022-10-08T18:38:03.767Z,192.3871
2022-10-08T18:43:05.495Z,168
2022-10-08T18:48:07.165Z,169.64103
2022-10-08T18:53:08.965Z,179.1145
2022-10-08T18:58:10.435Z,188.44444
2022-10-08T19:03:12.702Z,175.57895
2022-10-08T19:08:14.360Z,181.83784
2022-10-08T19:13:15.981Z,190.4
2022-10-08T19:18:17.752Z,196.45902
2022-10-08T19:23:19.420Z,183.68872
2022-10-08T19:28:21.168Z,186.51969
2022-10-08T19:33:23.296Z,179.1145
2022-10-08T19:38:25.085Z,168.81752
2022-10-08T19:43:26.719Z,173.85075
2022-10-08T19:48:28.406Z,147.97351
2022-10-08T19:53:30.105Z,162.43972
2022-10-08T19:58:31.813Z,164
2022-10-08T20:03:33.908Z,162.43972
2022-10-08T20:08:35.527Z,172.14815
2022-10-08T20:13:37.199Z,157.88889
2022-10-08T20:18:39.414Z,158.63415
2022-10-08T20:23:41.149Z,160.90141
2022-10-08T20:28:43.309Z,155.68385
2022-10-08T20:33:45.341Z,147.30033
2022-10-08T20:38:47.066Z,154.9589
2022-10-08T20:43:48.768Z,142.70968
2022-10-08T20:48:50.589Z,135.90031
2022-10-08T20:53:52.344Z,126.78932
2022-10-08T20:58:54.101Z,143.35275
2022-10-08T21:03:56.079Z,123.59184
2022-10-08T21:08:57.799Z,130.10272
2022-10-08T21:13:59.604Z,127.8806
2022-10-08T21:19:01.412Z,126.78932
2022-10-08T21:24:03.250Z,125.71091
2022-10-08T21:29:04.971Z,125.17647
2022-10-08T21:34:07.186Z,129.54217
2022-10-08T21:39:09.558Z,137.10345
2022-10-08T21:44:11.218Z,131.80488
2022-10-08T21:49:12.734Z,132.3792
2022-10-08T21:54:14.382Z,128.98498
2022-10-08T21:59:16.109Z,112.30601
2022-10-08T22:04:17.880Z,126.78932
2022-10-08T22:09:19.635Z,130.10272
2022-10-08T22:14:21.364Z,136.5
2022-10-08T22:19:22.808Z,132.95706
2022-10-08T22:24:24.805Z,125.71091
2022-10-08T22:29:26.503Z,112.76712
2022-10-08T22:34:28.509Z,105.25654
2022-10-08T22:39:30.232Z,90.31829
2022-10-08T22:44:31.960Z,84
2022-10-08T22:49:33.758Z,80.88889
2022-10-08T22:54:36.060Z,78.79212
2022-10-08T22:59:37.821Z,75.06383
2022-10-08T23:04:39.946Z,72.60125
2022-10-08T23:09:41.611Z,71.53623
2022-10-08T23:14:43.273Z,68.94929
2022-10-08T23:19:44.986Z,67.69478
2022-10-08T23:24:46.739Z,66.95409
2022-10-08T23:29:48.388Z,66.95409
2022-10-08T23:34:50.273Z,65.9802
2022-10-08T23:39:57.050Z,62.68979
2022-10-08T23:44:59.611Z,64.3125
2022-10-08T23:50:01.461Z,65.02161
2022-10-08T23:55:03.208Z,65.73913
